createdAt,value
2023-03-19T00:02:16.774Z,45.28
2023-03-19T00:04:44.229Z,45.72
2023-03-19T00:07:11.252Z,45.91
2023-03-19T00:09:38.097Z,45.41
2023-03-19T00:12:04.956Z,45.41
2023-03-19T00:14:31.733Z,45.41
2023-03-19T00:16:58.439Z,45.25
2023-03-19T00:19:25.299Z,45.64
2023-03-19T00:21:52.222Z,45.80
2023-03-19T00:24:19.051Z,45.34
2023-03-19T00:26:45.606Z,45.43
2023-03-19T00:29:13.064Z,45.21
2023-03-19T00:31:40.793Z,45.73
2023-03-19T00:34:08.331Z,45.34
2023-03-19T00:36:34.909Z,45.42
2023-03-19T00:39:02.005Z,46.01
2023-03-19T00:41:29.489Z,45.93
2023-03-19T00:43:57.372Z,45.58
2023-03-19T00:46:25.611Z,45.92
2023-03-19T00:48:55.500Z,45.48
2023-03-19T00:51:23.724Z,45.65
2023-03-19T00:53:51.413Z,46.20
2023-03-19T00:56:18.409Z,46.18
2023-03-19T00:58:45.791Z,45.69
2023-03-19T01:01:15.661Z,45.73
2023-03-19T01:03:42.586Z,45.67
2023-03-19T01:06:09.156Z,46.25
2023-03-19T01:08:35.796Z,46.09
2023-03-19T01:11:11.223Z,46.13
2023-03-19T01:13:37.877Z,46.05
2023-03-19T01:16:05.014Z,46.20
2023-03-19T01:18:31.915Z,45.79
2023-03-19T01:20:58.797Z,45.82
2023-03-19T01:23:25.488Z,45.62
2023-03-19T01:25:52.213Z,46.34
2023-03-19T01:28:19.766Z,45.70
2023-03-19T01:30:46.364Z,46.27
2023-03-19T01:33:13.182Z,46.36
2023-03-19T01:35:39.997Z,46.19
2023-03-19T01:38:07.942Z,46.21
2023-03-19T01:40:34.724Z,46.33
2023-03-19T01:43:10.646Z,45.94
2023-03-19T01:45:39.544Z,45.97
2023-03-19T01:48:12.489Z,46.03
2023-03-19T01:50:45.942Z,46.28
2023-03-19T01:53:15.866Z,46.31
2023-03-19T01:55:42.566Z,46.03
2023-03-19T01:58:10.275Z,46.06
2023-03-19T02:00:38.307Z,46.34
2023-03-19T02:03:06.679Z,46.81
2023-03-19T02:05:33.980Z,46.48
2023-03-19T02:08:06.477Z,46.63
2023-03-19T02:10:34.135Z,45.92
2023-03-19T02:13:01.022Z,46.50
2023-03-19T02:15:27.678Z,46.37
2023-03-19T02:17:54.564Z,46.32
2023-03-19T02:20:32.408Z,46.65
2023-03-19T02:23:22.085Z,46.67
2023-03-19T02:25:48.521Z,46.24
2023-03-19T02:28:18.850Z,46.85
2023-03-19T02:30:46.036Z,46.65
2023-03-19T02:33:18.136Z,46.49
2023-03-19T02:35:50.529Z,46.75
2023-03-19T02:38:17.443Z,47.00
2023-03-19T02:40:57.132Z,47.04
2023-03-19T02:43:24.078Z,46.32
2023-03-19T02:45:50.635Z,47.01
2023-03-19T02:48:17.350Z,46.66
2023-03-19T02:50:43.857Z,46.83
2023-03-19T02:53:10.358Z,46.39
2023-03-19T02:55:37.019Z,46.42
2023-03-19T02:58:03.622Z,46.57
2023-03-19T03:00:30.606Z,46.65
2023-03-19T03:02:58.037Z,46.84
2023-03-19T03:05:24.752Z,47.25
2023-03-19T03:07:51.294Z,46.81
2023-03-19T03:10:18.134Z,47.00
2023-03-19T03:12:44.693Z,46.96
2023-03-19T03:15:11.325Z,46.75
2023-03-19T03:17:39.989Z,47.02
2023-03-19T03:20:08.513Z,47.01
2023-03-19T03:22:35.729Z,46.99
2023-03-19T03:25:02.212Z,47.16
2023-03-19T03:27:28.731Z,46.81
2023-03-19T03:29:55.451Z,46.71
2023-03-19T03:32:22.361Z,47.15
2023-03-19T03:34:49.037Z,47.14
2023-03-19T03:37:15.605Z,46.90
2023-03-19T03:39:42.559Z,46.90
2023-03-19T03:42:09.110Z,46.90
2023-03-19T03:44:36.238Z,47.23
2023-03-19T03:47:03.524Z,47.10
2023-03-19T03:49:30.091Z,47.14
2023-03-19T03:51:57.275Z,47.25
2023-03-19T03:54:23.779Z,47.29
2023-03-19T03:56:50.810Z,46.90
2023-03-19T03:59:17.369Z,46.96
2023-03-19T04:01:43.880Z,47.30
2023-03-19T04:04:10.617Z,47.16
2023-03-19T04:06:37.133Z,47.33
2023-03-19T04:09:03.941Z,47.63
2023-03-19T04:11:30.495Z,47.03
2023-03-19T04:13:57.778Z,46.99
2023-03-19T04:16:24.776Z,46.89
2023-03-19T04:18:51.380Z,47.27
2023-03-19T04:21:17.873Z,46.96
2023-03-19T04:23:44.353Z,47.04
2023-03-19T04:26:12.255Z,46.65
2023-03-19T04:28:38.834Z,46.77
2023-03-19T04:31:07.508Z,47.16
2023-03-19T04:33:34.741Z,47.09
2023-03-19T04:36:01.658Z,47.13
2023-03-19T04:38:28.584Z,47.30
2023-03-19T04:40:56.169Z,46.96
2023-03-19T04:43:23.700Z,47.13
2023-03-19T04:45:50.761Z,47.06
2023-03-19T04:48:18.413Z,46.94
2023-03-19T04:50:47.118Z,47.41
2023-03-19T04:53:13.954Z,47.39
2023-03-19T04:55:41.055Z,47.36
2023-03-19T04:58:09.033Z,47.40
2023-03-19T05:00:35.723Z,47.30
2023-03-19T05:03:02.318Z,47.45
2023-03-19T05:05:29.038Z,47.23
2023-03-19T05:07:57.311Z,47.10
2023-03-19T05:10:24.140Z,47.10
2023-03-19T05:12:50.654Z,47.25
2023-03-19T05:15:17.257Z,47.51
2023-03-19T05:17:43.819Z,47.40
2023-03-19T05:20:12.641Z,47.00
2023-03-19T05:22:39.219Z,47.30
2023-03-19T05:25:06.911Z,47.33
2023-03-19T05:27:33.559Z,47.32
2023-03-19T05:30:01.436Z,46.97
2023-03-19T05:32:28.349Z,47.36
2023-03-19T05:34:55.106Z,47.04
2023-03-19T05:37:21.916Z,46.97
2023-03-19T05:39:48.466Z,47.46
2023-03-19T05:42:15.620Z,47.22
2023-03-19T05:44:42.298Z,47.39
2023-03-19T05:47:10.180Z,47.10
2023-03-19T05:49:37.256Z,46.92
2023-03-19T05:52:04.171Z,46.97
2023-03-19T05:54:30.718Z,47.09
2023-03-19T05:56:57.337Z,47.09
2023-03-19T05:59:23.906Z,47.21
2023-03-19T06:01:50.688Z,47.05
2023-03-19T06:04:17.274Z,47.38
2023-03-19T06:06:43.874Z,47.18
2023-03-19T06:09:10.438Z,46.88
2023-03-19T06:11:39.477Z,47.14
2023-03-19T06:14:06.856Z,47.14
2023-03-19T06:16:33.347Z,47.29
2023-03-19T06:19:00.007Z,47.18
2023-03-19T06:21:29.553Z,47.03
2023-03-19T06:23:56.958Z,46.81
2023-03-19T06:26:24.190Z,46.89
2023-03-19T06:28:50.764Z,47.22
2023-03-19T06:31:17.548Z,47.09
2023-03-19T06:33:44.141Z,47.06
2023-03-19T06:36:10.717Z,46.99
2023-03-19T06:38:37.823Z,46.85
2023-03-19T06:41:04.608Z,47.15
2023-03-19T06:43:31.868Z,47.15
2023-03-19T06:45:58.467Z,46.97
2023-03-19T06:48:25.101Z,47.32
2023-03-19T06:50:51.642Z,47.04
2023-03-19T06:53:18.166Z,46.92
2023-03-19T06:55:46.837Z,46.95
2023-03-19T06:58:13.478Z,47.37
2023-03-19T07:00:40.030Z,47.04
2023-03-19T07:03:07.431Z,47.09
2023-03-19T07:05:34.051Z,47.19
2023-03-19T07:08:00.809Z,46.83
2023-03-19T07:10:27.377Z,46.96
2023-03-19T07:12:53.956Z,47.29
2023-03-19T07:15:21.615Z,46.81
2023-03-19T07:17:49.549Z,47.34
2023-03-19T07:20:16.401Z,47.43
2023-03-19T07:22:42.911Z,47.47
2023-03-19T07:25:09.665Z,46.77
2023-03-19T07:27:36.210Z,47.36
2023-03-19T07:30:02.822Z,47.17
2023-03-19T07:32:29.358Z,47.10
2023-03-19T07:34:56.154Z,47.36
2023-03-19T07:37:22.743Z,47.20
2023-03-19T07:39:49.265Z,47.43
2023-03-19T07:42:15.824Z,47.03
2023-03-19T07:44:42.353Z,47.56
2023-03-19T07:47:22.531Z,46.98
2023-03-19T07:49:54.711Z,46.91
2023-03-19T07:52:21.288Z,46.82
2023-03-19T07:54:47.926Z,46.39
2023-03-19T07:57:16.561Z,46.42
2023-03-19T07:59:43.069Z,46.23
2023-03-19T08:02:13.340Z,46.47
2023-03-19T08:04:42.865Z,46.44
2023-03-19T08:07:12.828Z,46.25
2023-03-19T08:09:40.676Z,45.85
2023-03-19T08:12:07.768Z,46.26
2023-03-19T08:14:34.335Z,45.87
2023-03-19T08:17:01.168Z,46.03
2023-03-19T08:19:28.210Z,45.78
2023-03-19T08:21:54.725Z,45.72
2023-03-19T08:24:21.507Z,45.51
2023-03-19T08:26:48.010Z,45.63
2023-03-19T08:29:14.587Z,45.83
2023-03-19T08:31:41.219Z,45.66
2023-03-19T08:34:10.324Z,45.41
2023-03-19T08:36:36.843Z,45.92
2023-03-19T08:39:04.216Z,45.69
2023-03-19T08:41:31.251Z,45.52
2023-03-19T08:43:57.783Z,45.25
2023-03-19T08:46:24.473Z,45.26
2023-03-19T08:48:51.054Z,45.72
2023-03-19T08:51:17.613Z,45.55
2023-03-19T08:53:45.396Z,46.07
2023-03-19T08:56:11.989Z,45.88
2023-03-19T08:58:40.065Z,45.28
2023-03-19T09:01:12.762Z,46.59
2023-03-19T09:03:40.731Z,46.96
2023-03-19T09:06:09.909Z,47.91
2023-03-19T09:08:37.534Z,48.03
2023-03-19T09:11:05.505Z,47.60
2023-03-19T09:13:32.577Z,47.85
2023-03-19T09:15:59.178Z,48.30
2023-03-19T09:18:25.907Z,48.06
2023-03-19T09:20:53.984Z,47.91
2023-03-19T09:23:21.294Z,49.00
2023-03-19T09:25:48.687Z,49.36
2023-03-19T09:28:15.414Z,49.62
2023-03-19T09:30:41.971Z,50.26
2023-03-19T09:33:08.722Z,50.70
2023-03-19T09:35:35.665Z,51.63
2023-03-19T09:38:03.121Z,51.58
2023-03-19T09:40:43.846Z,52.91
2023-03-19T09:43:31.790Z,53.07
2023-03-19T09:46:01.247Z,52.51
2023-03-19T09:48:54.733Z,54.33
2023-03-19T09:51:30.335Z,53.47
2023-03-19T09:54:05.317Z,53.47
2023-03-19T09:56:33.198Z,52.89
2023-03-19T09:59:00.412Z,52.69
2023-03-19T10:01:33.665Z,52.47
2023-03-19T10:04:25.121Z,52.09
2023-03-19T10:06:59.613Z,52.70
2023-03-19T10:09:43.111Z,52.75
2023-03-19T10:12:27.591Z,52.11
2023-03-19T10:15:17.295Z,53.21
2023-03-19T10:17:58.184Z,52.81
2023-03-19T10:20:33.659Z,52.42
2023-03-19T10:23:33.741Z,52.57
2023-03-19T10:26:03.876Z,52.29
2023-03-19T10:28:30.815Z,51.82
2023-03-19T10:31:22.204Z,52.00
2023-03-19T10:34:16.965Z,51.95
2023-03-19T10:36:43.475Z,51.67
2023-03-19T10:39:10.039Z,52.21
2023-03-19T10:42:05.266Z,52.27
2023-03-19T10:44:36.919Z,51.82
2023-03-19T10:47:15.409Z,51.65
2023-03-19T10:49:42.727Z,51.97
2023-03-19T10:52:22.766Z,51.81
2023-03-19T10:54:55.806Z,51.84
2023-03-19T10:57:26.696Z,51.56
2023-03-19T10:59:53.268Z,51.70
2023-03-19T11:02:23.312Z,51.41
2023-03-19T11:05:07.691Z,51.57
2023-03-19T11:07:36.291Z,51.29
2023-03-19T11:10:03.488Z,51.58
2023-03-19T11:12:35.527Z,51.14
2023-03-19T11:15:07.541Z,51.19
2023-03-19T11:17:45.029Z,51.21
2023-03-19T11:20:23.557Z,50.79
2023-03-19T11:22:52.547Z,50.62
2023-03-19T11:25:27.065Z,51.20
2023-03-19T11:28:19.691Z,51.27
2023-03-19T11:31:15.909Z,51.28
2023-03-19T11:34:20.040Z,50.73
2023-03-19T11:37:01.778Z,50.52
2023-03-19T11:39:49.863Z,50.57
2023-03-19T11:42:36.787Z,50.60
2023-03-19T11:45:13.614Z,50.83
2023-03-19T11:48:02.651Z,50.19
2023-03-19T11:50:48.382Z,50.42
2023-03-19T11:53:41.867Z,50.49
2023-03-19T11:56:27.705Z,50.98
2023-03-19T11:59:25.633Z,51.57
2023-03-19T12:02:14.052Z,51.19
2023-03-19T12:05:09.272Z,51.87
2023-03-19T12:07:48.075Z,51.40
2023-03-19T12:10:23.610Z,51.65
2023-03-19T12:13:19.708Z,51.44
2023-03-19T12:16:15.915Z,51.68
2023-03-19T12:18:44.981Z,51.78
2023-03-19T12:21:35.337Z,50.97
2023-03-19T12:24:04.533Z,51.14
2023-03-19T12:26:54.048Z,51.25
2023-03-19T12:29:43.801Z,50.96
2023-03-19T12:32:27.290Z,51.03
2023-03-19T12:34:57.799Z,50.33
2023-03-19T12:37:36.488Z,50.00
2023-03-19T12:40:41.899Z,50.53
2023-03-19T12:43:43.024Z,50.46
2023-03-19T12:46:14.692Z,50.25
2023-03-19T12:48:53.104Z,50.86
2023-03-19T12:51:27.732Z,51.13
2023-03-19T12:53:58.780Z,50.53
2023-03-19T12:56:49.223Z,50.56
2023-03-19T12:59:33.568Z,50.56
2023-03-19T13:02:18.164Z,50.80
2023-03-19T13:05:12.844Z,50.67
2023-03-19T13:07:57.846Z,50.67
2023-03-19T13:10:25.721Z,50.70
2023-03-19T13:12:53.991Z,50.32
2023-03-19T13:15:37.321Z,50.28
2023-03-19T13:18:46.444Z,50.17
2023-03-19T13:21:24.605Z,50.16
2023-03-19T13:24:23.141Z,50.24
2023-03-19T13:26:51.042Z,50.10
2023-03-19T13:29:26.977Z,49.91
2023-03-19T13:32:05.652Z,50.61
2023-03-19T13:34:35.637Z,50.53
2023-03-19T13:37:15.347Z,50.40
2023-03-19T13:39:43.638Z,49.73
2023-03-19T13:42:10.202Z,49.98
2023-03-19T13:44:43.041Z,50.30
2023-03-19T13:47:36.360Z,50.05
2023-03-19T13:50:10.888Z,49.76
2023-03-19T13:52:50.087Z,50.56
2023-03-19T13:55:33.141Z,50.33
2023-03-19T13:58:37.775Z,50.49
2023-03-19T14:01:24.191Z,50.12
2023-03-19T14:03:58.739Z,50.05
2023-03-19T14:06:53.616Z,50.10
2023-03-19T14:09:43.045Z,50.09
2023-03-19T14:12:20.120Z,50.39
2023-03-19T14:14:56.046Z,50.35
2023-03-19T14:17:24.378Z,50.49
2023-03-19T14:19:53.154Z,50.28
2023-03-19T14:22:59.021Z,50.28
2023-03-19T14:25:27.663Z,50.31
2023-03-19T14:27:59.261Z,50.09
2023-03-19T14:30:35.147Z,50.51
2023-03-19T14:33:08.181Z,49.88
2023-03-19T14:35:45.074Z,49.95
2023-03-19T14:38:31.949Z,49.78
2023-03-19T14:41:01.079Z,50.27
2023-03-19T14:43:51.444Z,50.09
2023-03-19T14:46:40.428Z,50.02
2023-03-19T14:49:42.966Z,50.11
2023-03-19T14:52:35.642Z,50.18
2023-03-19T14:55:12.610Z,50.22
2023-03-19T14:57:39.210Z,49.38
2023-03-19T15:00:18.662Z,50.03
2023-03-19T15:02:51.204Z,49.84
2023-03-19T15:05:28.596Z,49.74
2023-03-19T15:08:04.958Z,50.38
2023-03-19T15:10:44.107Z,49.66
2023-03-19T15:13:22.618Z,50.14
2023-03-19T15:16:05.600Z,49.55
2023-03-19T15:18:32.225Z,50.09
2023-03-19T15:20:59.202Z,49.67
2023-03-19T15:23:28.634Z,49.88
2023-03-19T15:26:03.958Z,49.45
2023-03-19T15:28:44.778Z,49.91
2023-03-19T15:31:29.887Z,49.87
2023-03-19T15:33:58.970Z,49.45
2023-03-19T15:36:31.200Z,49.52
2023-03-19T15:39:02.601Z,49.47
2023-03-19T15:41:31.986Z,50.00
2023-03-19T15:44:01.026Z,49.61
2023-03-19T15:46:32.818Z,49.41
2023-03-19T15:49:17.360Z,49.75
2023-03-19T15:51:51.466Z,49.58
2023-03-19T15:54:19.117Z,49.24
2023-03-19T15:56:46.282Z,49.77
2023-03-19T15:59:12.947Z,49.38
2023-03-19T16:01:39.666Z,49.87
2023-03-19T16:04:08.635Z,49.34
2023-03-19T16:06:39.630Z,49.44
2023-03-19T16:09:27.132Z,50.04
2023-03-19T16:11:54.497Z,49.34
2023-03-19T16:14:29.678Z,49.59
2023-03-19T16:17:11.542Z,49.82
2023-03-19T16:19:51.943Z,49.44
2023-03-19T16:22:23.320Z,49.45
2023-03-19T16:24:51.922Z,49.16
2023-03-19T16:27:39.948Z,49.91
2023-03-19T16:30:16.080Z,49.62
2023-03-19T16:32:42.686Z,49.79
2023-03-19T16:35:15.402Z,49.68
2023-03-19T16:37:49.737Z,50.03
2023-03-19T16:40:23.608Z,49.40
2023-03-19T16:42:51.236Z,49.67
2023-03-19T16:45:22.386Z,49.39
2023-03-19T16:47:51.389Z,49.86
2023-03-19T16:50:19.911Z,49.11
2023-03-19T16:52:47.734Z,49.96
2023-03-19T16:55:23.841Z,49.91
2023-03-19T16:58:11.488Z,49.59
2023-03-19T17:00:38.075Z,49.29
2023-03-19T17:03:11.064Z,49.43
2023-03-19T17:05:37.742Z,49.46
2023-03-19T17:08:04.401Z,49.42
2023-03-19T17:10:32.363Z,49.92
2023-03-19T17:13:01.081Z,49.73
2023-03-19T17:15:35.548Z,49.49
2023-03-19T17:18:04.302Z,49.93
2023-03-19T17:20:36.722Z,49.95
2023-03-19T17:23:12.894Z,49.26
2023-03-19T17:25:40.474Z,49.41
2023-03-19T17:28:06.986Z,49.37
2023-03-19T17:30:34.314Z,49.78
2023-03-19T17:33:01.087Z,49.74
2023-03-19T17:35:27.935Z,49.43
2023-03-19T17:37:54.982Z,50.11
2023-03-19T17:40:27.611Z,49.53
2023-03-19T17:42:56.128Z,49.76
2023-03-19T17:45:29.834Z,49.57
2023-03-19T17:47:57.395Z,50.34
2023-03-19T17:50:27.091Z,49.90
2023-03-19T17:52:53.663Z,50.19
2023-03-19T17:55:23.329Z,49.65
2023-03-19T17:57:51.160Z,49.74
2023-03-19T18:00:20.086Z,49.84
2023-03-19T18:02:50.744Z,50.17
2023-03-19T18:05:20.092Z,49.95
2023-03-19T18:07:48.342Z,49.91
2023-03-19T18:10:27.597Z,50.14
2023-03-19T18:12:54.765Z,50.36
2023-03-19T18:15:22.313Z,49.86
2023-03-19T18:17:56.044Z,49.95
2023-03-19T18:20:24.108Z,49.73
2023-03-19T18:22:51.038Z,49.60
2023-03-19T18:25:22.911Z,49.85
2023-03-19T18:27:49.858Z,49.84
2023-03-19T18:30:19.448Z,49.66
2023-03-19T18:32:49.483Z,49.55
2023-03-19T18:35:19.041Z,49.64
2023-03-19T18:37:48.648Z,49.94
2023-03-19T18:40:19.291Z,50.02
2023-03-19T18:42:47.127Z,49.38
2023-03-19T18:45:15.234Z,49.48
2023-03-19T18:47:43.526Z,49.90
2023-03-19T18:50:19.783Z,49.46
2023-03-19T18:52:48.198Z,49.95
2023-03-19T18:55:15.588Z,49.61
2023-03-19T18:57:54.124Z,50.16
2023-03-19T19:00:28.331Z,49.35
2023-03-19T19:02:56.632Z,49.78
2023-03-19T19:05:27.653Z,49.81
2023-03-19T19:07:59.885Z,49.98
2023-03-19T19:10:32.461Z,49.88
2023-03-19T19:13:00.289Z,49.74
2023-03-19T19:15:34.182Z,49.51
2023-03-19T19:18:03.087Z,49.86
2023-03-19T19:20:29.863Z,49.39
2023-03-19T19:22:56.610Z,50.11
2023-03-19T19:25:26.200Z,49.63
2023-03-19T19:28:06.437Z,49.80
2023-03-19T19:30:33.161Z,49.54
2023-03-19T19:32:59.943Z,49.59
2023-03-19T19:35:28.263Z,49.15
2023-03-19T19:37:55.480Z,49.90
2023-03-19T19:40:26.992Z,49.78
2023-03-19T19:42:53.923Z,49.16
2023-03-19T19:45:41.767Z,49.68
2023-03-19T19:48:19.575Z,49.59
2023-03-19T19:50:47.409Z,49.89
2023-03-19T19:53:15.165Z,49.91
2023-03-19T19:55:42.787Z,49.67
2023-03-19T19:58:24.721Z,49.95
2023-03-19T20:01:02.901Z,49.78
2023-03-19T20:03:32.775Z,50.04
2023-03-19T20:06:01.451Z,49.73
2023-03-19T20:08:28.772Z,50.10
2023-03-19T20:10:56.227Z,50.00
2023-03-19T20:13:29.112Z,50.06
2023-03-19T20:15:58.717Z,49.31
2023-03-19T20:18:30.804Z,49.58
2023-03-19T20:20:59.285Z,49.66
2023-03-19T20:23:26.254Z,49.20
2023-03-19T20:25:55.939Z,49.71
2023-03-19T20:28:26.306Z,49.13
2023-03-19T20:30:54.239Z,49.69
2023-03-19T20:33:21.676Z,49.05
2023-03-19T20:35:48.636Z,49.16
2023-03-19T20:38:15.835Z,49.75
2023-03-19T20:40:45.522Z,49.91
2023-03-19T20:43:32.344Z,49.44
2023-03-19T20:46:02.847Z,49.55
2023-03-19T20:48:30.683Z,49.70
2023-03-19T20:50:58.343Z,49.66
2023-03-19T20:53:25.681Z,49.41
2023-03-19T20:55:52.797Z,48.82
2023-03-19T20:58:27.470Z,48.86
2023-03-19T21:00:56.429Z,48.78
2023-03-19T21:03:25.341Z,49.03
2023-03-19T21:05:55.410Z,48.91
2023-03-19T21:08:32.327Z,49.11
2023-03-19T21:10:58.989Z,48.59
2023-03-19T21:13:25.937Z,48.80
2023-03-19T21:15:53.921Z,48.95
2023-03-19T21:18:20.556Z,48.93
2023-03-19T21:20:50.907Z,48.80
2023-03-19T21:23:20.520Z,49.18
2023-03-19T21:25:48.191Z,48.52
2023-03-19T21:28:28.184Z,49.37
2023-03-19T21:30:54.740Z,48.38
2023-03-19T21:33:27.159Z,48.89
2023-03-19T21:35:55.111Z,49.21
2023-03-19T21:38:22.665Z,48.34
2023-03-19T21:41:00.562Z,48.68
2023-03-19T21:43:34.255Z,49.12
2023-03-19T21:46:13.840Z,48.97
2023-03-19T21:48:44.326Z,48.82
2023-03-19T21:51:16.630Z,48.44
2023-03-19T21:53:43.586Z,48.81
2023-03-19T21:56:22.195Z,48.78
2023-03-19T21:58:51.442Z,48.39
2023-03-19T22:01:20.655Z,49.04
2023-03-19T22:03:48.040Z,48.65
2023-03-19T22:06:14.641Z,49.07
2023-03-19T22:08:44.455Z,49.06
2023-03-19T22:11:35.938Z,48.87
2023-03-19T22:14:14.469Z,48.91
2023-03-19T22:16:41.205Z,48.91
2023-03-19T22:19:13.026Z,49.07
2023-03-19T22:21:39.548Z,49.07
2023-03-19T22:24:06.304Z,48.44
2023-03-19T22:26:41.720Z,49.15
2023-03-19T22:29:15.766Z,48.76
2023-03-19T22:31:42.382Z,49.04
2023-03-19T22:34:17.560Z,48.88
2023-03-19T22:36:44.963Z,48.85
2023-03-19T22:39:11.663Z,49.27
2023-03-19T22:41:42.652Z,48.94
2023-03-19T22:44:16.359Z,48.78
2023-03-19T22:46:42.827Z,49.13
2023-03-19T22:49:13.886Z,48.76
2023-03-19T22:51:40.432Z,48.84
2023-03-19T22:54:07.089Z,49.21
2023-03-19T22:56:33.622Z,49.27
2023-03-19T22:59:00.174Z,49.36
2023-03-19T23:01:31.558Z,49.02
2023-03-19T23:04:25.384Z,49.06
2023-03-19T23:06:54.168Z,49.48
2023-03-19T23:09:24.095Z,49.26
2023-03-19T23:11:51.573Z,49.45
2023-03-19T23:14:29.042Z,49.34
2023-03-19T23:19:29.159Z,49.50
2023-03-19T23:21:56.432Z,48.76
2023-03-19T23:24:24.154Z,49.07
2023-03-19T23:26:53.856Z,49.29
2023-03-19T23:29:24.547Z,48.91
2023-03-19T23:31:51.333Z,49.21
2023-03-19T23:34:17.893Z,49.15
2023-03-19T23:36:44.525Z,49.26
2023-03-19T23:39:11.463Z,49.13
2023-03-19T23:41:48.228Z,49.42
2023-03-19T23:44:17.646Z,49.03
2023-03-19T23:46:49.272Z,49.22
2023-03-19T23:49:24.120Z,49.29
2023-03-19T23:51:50.716Z,49.21
2023-03-19T23:54:20.276Z,49.63
2023-03-19T23:56:46.774Z,49.42
2023-03-19T23:59:13.343Z,49.09
